createdAt,value
2022-09-20T00:04:43.190Z,9.89
2022-09-20T00:09:45.485Z,9.99
2022-09-20T00:14:47.744Z,10.33
2022-09-20T00:19:49.958Z,10.44
2022-09-20T00:24:52.173Z,10.47
2022-09-20T00:29:54.289Z,10.26
2022-09-20T00:35:08.470Z,10.56
2022-09-20T00:40:17.525Z,10.72
2022-09-20T00:45:22.667Z,10.85
2022-09-20T00:50:30.979Z,10.57
2022-09-20T00:55:37.429Z,10.31
2022-09-20T01:00:41.040Z,10.51
2022-09-20T01:05:44.976Z,10.52
2022-09-20T01:10:47.804Z,10.64
2022-09-20T01:15:51.796Z,10.70
2022-09-20T01:20:54.826Z,10.70
2022-09-20T01:26:16.509Z,10.74
2022-09-20T01:31:24.301Z,10.83
2022-09-20T01:36:31.872Z,11.00
2022-09-20T01:41:53.239Z,10.79
2022-09-20T01:47:01.240Z,10.87
2022-09-20T01:52:38.528Z,10.90
2022-09-20T01:58:13.194Z,11.01
2022-09-20T02:03:25.792Z,10.88
2022-09-20T02:09:14.188Z,10.58
2022-09-20T02:14:40.424Z,10.73
2022-09-20T02:19:59.899Z,10.73
2022-09-20T02:25:12.630Z,10.30
2022-09-20T02:30:32.954Z,10.18
2022-09-20T02:35:58.269Z,9.90
2022-09-20T02:41:27.918Z,10.09
2022-09-20T02:46:48.520Z,9.90
2022-09-20T02:52:02.980Z,9.89
2022-09-20T02:57:20.812Z,9.93
2022-09-20T03:02:30.612Z,9.84
2022-09-20T03:07:47.631Z,9.62
2022-09-20T03:12:57.508Z,9.58
2022-09-20T03:18:16.520Z,9.45
2022-09-20T03:24:03.519Z,9.64
2022-09-20T03:29:16.506Z,9.32
2022-09-20T03:34:39.873Z,9.60
2022-09-20T03:40:12.549Z,9.46
2022-09-20T03:45:23.965Z,9.02
2022-09-20T03:50:44.772Z,8.79
2022-09-20T03:55:49.909Z,8.72
2022-09-20T04:01:02.256Z,8.31
2022-09-20T04:06:19.802Z,8.22
2022-09-20T04:11:41.629Z,8.18
2022-09-20T04:16:53.588Z,8.03
2022-09-20T04:22:00.890Z,8.04
2022-09-20T04:27:18.342Z,7.98
2022-09-20T04:32:20.762Z,8.04
2022-09-20T04:37:33.718Z,7.67
2022-09-20T04:43:17.714Z,7.64
2022-09-20T04:49:03.627Z,7.69
2022-09-20T04:54:59.180Z,7.86
2022-09-20T05:00:15.132Z,7.92
2022-09-20T05:05:41.667Z,8.20
2022-09-20T05:10:53.073Z,8.41
2022-09-20T05:16:00.307Z,8.59
2022-09-20T05:21:27.192Z,8.94
2022-09-20T05:26:45.552Z,9.65
2022-09-20T05:31:55.284Z,10.11
2022-09-20T05:37:34.941Z,10.78
2022-09-20T05:42:43.388Z,10.89
2022-09-20T05:48:10.593Z,11.17
2022-09-20T05:53:35.072Z,12.14
2022-09-20T05:58:58.380Z,15.34
2022-09-20T06:04:12.669Z,19.20
2022-09-20T06:09:37.812Z,21.45
2022-09-20T06:14:46.283Z,25.25
2022-09-20T06:20:16.181Z,21.54
2022-09-20T06:25:47.966Z,19.47
2022-09-20T06:30:55.882Z,18.35
2022-09-20T06:36:24.091Z,18.31
2022-09-20T06:41:31.053Z,18.77
2022-09-20T06:46:39.522Z,18.72
2022-09-20T06:51:42.211Z,18.44
2022-09-20T06:56:47.138Z,17.80
2022-09-20T07:01:49.558Z,17.28
2022-09-20T07:06:51.839Z,17.32
2022-09-20T07:11:56.245Z,18.30
2022-09-20T07:16:58.631Z,17.80
2022-09-20T07:22:00.888Z,18.15
2022-09-20T07:27:05.455Z,17.71
2022-09-20T07:32:07.902Z,16.80
2022-09-20T07:37:10.148Z,16.28
2022-09-20T07:42:13.433Z,15.61
2022-09-20T07:53:38.499Z,16.81
2022-09-20T07:58:41.825Z,15.66
2022-09-20T08:03:45.177Z,17.25
2022-09-20T08:08:47.474Z,17.49
2022-09-20T08:14:07.791Z,16.00
2022-09-20T08:19:19.240Z,15.17
2022-09-20T08:24:21.784Z,15.20
2022-09-20T08:29:23.949Z,15.69
2022-09-20T08:34:26.103Z,16.83
2022-09-20T08:44:58.871Z,16.20
2022-09-20T08:50:10.035Z,16.65
2022-09-20T08:55:20.172Z,17.31
2022-09-20T09:00:30.887Z,17.12
2022-09-20T09:05:43.620Z,15.76
2022-09-20T09:10:54.362Z,16.44
2022-09-20T09:16:06.887Z,16.49
2022-09-20T09:21:17.596Z,17.67
2022-09-20T09:26:25.216Z,17.76
2022-09-20T09:31:27.545Z,16.84
2022-09-20T09:36:29.788Z,16.00
2022-09-20T09:41:36.129Z,16.22
2022-09-20T09:46:40.464Z,16.29
2022-09-20T09:52:05.463Z,17.69
2022-09-20T09:57:26.287Z,18.78
2022-09-20T10:02:49.860Z,17.74
2022-09-20T10:08:15.713Z,15.74
2022-09-20T10:13:17.930Z,16.43
2022-09-20T10:18:35.322Z,16.91
2022-09-20T10:24:05.516Z,17.93
2022-09-20T10:29:17.276Z,17.31
2022-09-20T10:34:44.624Z,16.85
2022-09-20T10:39:55.355Z,16.64
2022-09-20T10:45:00.793Z,16.36
2022-09-20T10:50:43.288Z,16.30
2022-09-20T10:56:16.058Z,15.69
2022-09-20T11:01:42.946Z,17.05
2022-09-20T11:07:07.765Z,16.96
2022-09-20T11:12:16.792Z,16.39
2022-09-20T11:17:22.118Z,16.74
2022-09-20T11:22:44.121Z,16.78
2022-09-20T11:27:56.349Z,16.89
2022-09-20T11:33:20.529Z,16.55
2022-09-20T11:38:33.364Z,16.76
2022-09-20T11:43:40.745Z,17.38
2022-09-20T11:48:48.073Z,17.69
2022-09-20T11:54:05.357Z,17.02
2022-09-20T11:59:43.672Z,16.07
2022-09-20T12:04:49.854Z,15.75
2022-09-20T12:09:57.093Z,15.89
2022-09-20T12:15:03.100Z,16.34
2022-09-20T12:20:38.907Z,16.06
2022-09-20T12:25:41.359Z,16.29
2022-09-20T12:30:43.627Z,16.70
2022-09-20T12:35:57.875Z,16.88
2022-09-20T12:41:14.254Z,17.02
2022-09-20T12:46:36.370Z,16.58
2022-09-20T12:51:57.487Z,16.49
2022-09-20T12:57:18.166Z,16.09
2022-09-20T13:02:53.098Z,16.22
2022-09-20T13:08:03.170Z,16.52
2022-09-20T13:13:16.012Z,16.52
2022-09-20T13:18:18.658Z,16.43
2022-09-20T13:23:30.637Z,16.36
2022-09-20T13:28:48.126Z,16.49
2022-09-20T13:33:50.829Z,15.75
2022-09-20T13:38:55.592Z,15.89
2022-09-20T13:43:58.023Z,15.40
2022-09-20T13:49:09.414Z,15.59
2022-09-20T13:54:32.390Z,15.49
2022-09-20T13:59:42.411Z,15.35
2022-09-20T14:04:44.798Z,15.33
2022-09-20T14:09:47.037Z,15.57
2022-09-20T14:14:51.371Z,16.03
2022-09-20T14:19:55.623Z,15.91
2022-09-20T14:25:22.465Z,16.08
2022-09-20T14:30:31.042Z,15.38
2022-09-20T14:35:33.949Z,15.23
2022-09-20T14:40:48.437Z,15.33
2022-09-20T14:45:56.996Z,15.06
2022-09-20T14:51:25.601Z,15.21
2022-09-20T14:56:34.538Z,15.50
2022-09-20T15:01:41.442Z,15.28
2022-09-20T15:06:43.842Z,15.25
2022-09-20T15:11:46.408Z,15.41
2022-09-20T15:16:51.414Z,15.28
2022-09-20T15:21:53.920Z,15.31
2022-09-20T15:26:56.433Z,15.25
2022-09-20T15:31:58.813Z,15.09
2022-09-20T15:37:01.101Z,14.91
2022-09-20T15:42:03.538Z,15.15
2022-09-20T15:47:05.758Z,14.79
2022-09-20T15:52:07.944Z,14.00
2022-09-20T15:57:10.165Z,13.81
2022-09-20T16:02:12.868Z,13.49
2022-09-20T16:07:16.329Z,13.10
2022-09-20T16:12:18.952Z,12.34
2022-09-20T16:17:41.187Z,11.96
2022-09-20T16:22:43.509Z,11.45
2022-09-20T16:27:45.883Z,11.19
2022-09-20T16:33:06.914Z,10.89
2022-09-20T16:38:10.808Z,10.71
2022-09-20T16:43:13.020Z,10.45
2022-09-20T16:48:15.459Z,9.82
2022-09-20T16:53:17.573Z,9.88
2022-09-20T16:58:20.277Z,9.69
2022-09-20T17:03:27.275Z,9.54
2022-09-20T17:08:29.481Z,9.55
2022-09-20T17:13:35.168Z,9.16
2022-09-20T17:18:42.224Z,9.13
2022-09-20T17:23:50.801Z,8.84
2022-09-20T17:28:58.647Z,8.76
2022-09-20T17:34:02.469Z,8.70
2022-09-20T17:39:05.014Z,8.79
2022-09-20T17:44:10.315Z,8.70
2022-09-20T17:49:18.083Z,8.59
2022-09-20T17:54:21.219Z,8.52
2022-09-20T17:59:23.628Z,8.39
2022-09-20T18:04:25.967Z,8.02
2022-09-20T18:09:28.354Z,8.17
2022-09-20T18:14:32.186Z,7.80
2022-09-20T18:19:34.399Z,7.76
2022-09-20T18:24:36.778Z,7.73
2022-09-20T18:29:39.123Z,7.63
2022-09-20T18:34:41.464Z,7.37
2022-09-20T18:39:43.963Z,7.22
2022-09-20T18:44:46.325Z,7.46
2022-09-20T18:49:48.604Z,7.28
2022-09-20T18:54:50.733Z,7.17
2022-09-20T18:59:54.697Z,6.86
2022-09-20T19:05:08.531Z,6.78
2022-09-20T19:10:42.067Z,6.47
2022-09-20T19:16:03.128Z,6.67
2022-09-20T19:21:42.651Z,6.40
2022-09-20T19:26:45.833Z,6.24
2022-09-20T19:31:50.892Z,6.54
2022-09-20T19:37:20.791Z,7.71
2022-09-20T19:42:50.313Z,7.18
2022-09-20T19:48:22.300Z,6.52
2022-09-20T19:53:27.325Z,6.26
2022-09-20T19:58:29.849Z,6.26
2022-09-20T20:03:32.213Z,6.17
2022-09-20T20:08:43.273Z,6.15
2022-09-20T20:14:03.336Z,6.03
2022-09-20T20:19:25.286Z,6.20
2022-09-20T20:24:40.177Z,6.05
2022-09-20T20:29:42.465Z,5.76
2022-09-20T20:34:44.647Z,5.90
2022-09-20T20:39:47.575Z,5.67
2022-09-20T20:44:49.806Z,5.59
2022-09-20T20:49:53.678Z,5.29
2022-09-20T20:54:57.713Z,5.16
2022-09-20T21:00:00.853Z,5.08
2022-09-20T21:05:02.956Z,5.32
2022-09-20T21:10:05.616Z,5.55
2022-09-20T21:15:08.058Z,5.75
2022-09-20T21:20:10.510Z,5.47
2022-09-20T21:25:12.940Z,5.64
2022-09-20T21:30:15.438Z,5.75
2022-09-20T21:35:17.646Z,5.82
2022-09-20T21:40:19.759Z,5.69
2022-09-20T21:45:27.536Z,5.29
2022-09-20T21:50:29.669Z,5.26
2022-09-20T21:55:32.029Z,5.31
2022-09-20T22:00:36.036Z,5.27
2022-09-20T22:05:38.103Z,5.28
2022-09-20T22:10:40.407Z,5.29
2022-09-20T22:15:42.867Z,5.36
2022-09-20T22:20:45.839Z,5.26
2022-09-20T22:25:47.896Z,5.05
2022-09-20T22:30:49.989Z,5.11
2022-09-20T22:35:52.571Z,5.06
2022-09-20T22:41:00.110Z,5.25
2022-09-20T22:46:04.681Z,5.20
2022-09-20T22:51:09.142Z,5.08
2022-09-20T22:56:17.488Z,5.26
2022-09-20T23:01:21.503Z,5.20
2022-09-20T23:06:26.725Z,5.32
2022-09-20T23:11:29.822Z,5.10
2022-09-20T23:16:37.096Z,4.77
2022-09-20T23:21:40.924Z,5.04
2022-09-20T23:26:44.462Z,4.70
2022-09-20T23:31:48.058Z,4.75
2022-09-20T23:36:50.283Z,4.90
2022-09-20T23:41:52.320Z,4.74
2022-09-20T23:46:54.571Z,4.40
2022-09-20T23:51:56.845Z,4.46
2022-09-20T23:56:59.492Z,4.48
